sensor_id;sensor_type;location;lat;lon;timestamp;pressure;altitude;pressure_sealevel;temperature;humidity
41886;BME280;27567;43.084;25.616;2023-04-27T00:02:01;97811.41;;;6.87;100.00
41886;BME280;27567;43.084;25.616;2023-04-27T00:04:45;97815.19;;;6.77;100.00
41886;BME280;27567;43.084;25.616;2023-04-27T00:07:30;97821.03;;;6.88;100.00
41886;BME280;27567;43.084;25.616;2023-04-27T00:10:14;97826.44;;;6.95;100.00
41886;BME280;27567;43.084;25.616;2023-04-27T00:12:59;97827.13;;;6.82;100.00
41886;BME280;27567;43.084;25.616;2023-04-27T00:15:43;97827.19;;;6.67;100.00
41886;BME280;27567;43.084;25.616;2023-04-27T00:18:31;97828.72;;;6.76;100.00
41886;BME280;27567;43.084;25.616;2023-04-27T00:21:15;97830.81;;;6.81;100.00
41886;BME280;27567;43.084;25.616;2023-04-27T00:23:59;97839.78;;;6.58;100.00
41886;BME280;27567;43.084;25.616;2023-04-27T00:26:43;97835.38;;;6.65;100.00
41886;BME280;27567;43.084;25.616;2023-04-27T00:29:28;97839.81;;;6.80;100.00
41886;BME280;27567;43.084;25.616;2023-04-27T00:32:12;97846.16;;;6.79;100.00
41886;BME280;27567;43.084;25.616;2023-04-27T00:34:56;97851.78;;;6.69;100.00
41886;BME280;27567;43.084;25.616;2023-04-27T00:37:40;97859.66;;;6.55;100.00
41886;BME280;27567;43.084;25.616;2023-04-27T00:40:24;97862.44;;;6.69;100.00
41886;BME280;27567;43.084;25.616;2023-04-27T00:43:08;97853.72;;;6.75;100.00
41886;BME280;27567;43.084;25.616;2023-04-27T00:45:52;97864.09;;;6.70;100.00
41886;BME280;27567;43.084;25.616;2023-04-27T00:48:36;97860.16;;;6.66;100.00
41886;BME280;27567;43.084;25.616;2023-04-27T00:51:21;97862.28;;;6.70;100.00
41886;BME280;27567;43.084;25.616;2023-04-27T00:54:05;97865.50;;;6.87;100.00
41886;BME280;27567;43.084;25.616;2023-04-27T00:56:50;97866.31;;;6.66;100.00
41886;BME280;27567;43.084;25.616;2023-04-27T00:59:35;97866.34;;;6.51;100.00
41886;BME280;27567;43.084;25.616;2023-04-27T01:02:19;97866.31;;;6.66;100.00
41886;BME280;27567;43.084;25.616;2023-04-27T01:05:03;97875.97;;;6.67;100.00
41886;BME280;27567;43.084;25.616;2023-04-27T01:07:47;97875.63;;;6.55;100.00
41886;BME280;27567;43.084;25.616;2023-04-27T01:10:31;97878.03;;;6.50;100.00
41886;BME280;27567;43.084;25.616;2023-04-27T01:13:15;97886.72;;;6.59;100.00
41886;BME280;27567;43.084;25.616;2023-04-27T01:15:59;97890.22;;;6.59;100.00
41886;BME280;27567;43.084;25.616;2023-04-27T01:18:43;97882.25;;;6.44;100.00
41886;BME280;27567;43.084;25.616;2023-04-27T01:21:28;97899.63;;;6.40;100.00
41886;BME280;27567;43.084;25.616;2023-04-27T01:24:12;97899.59;;;6.55;100.00
41886;BME280;27567;43.084;25.616;2023-04-27T01:26:56;97906.22;;;6.59;100.00
41886;BME280;27567;43.084;25.616;2023-04-27T01:29:39;97915.19;;;6.73;100.00
41886;BME280;27567;43.084;25.616;2023-04-27T01:32:24;97915.44;;;6.64;100.00
41886;BME280;27567;43.084;25.616;2023-04-27T01:35:08;97912.63;;;6.65;100.00
41886;BME280;27567;43.084;25.616;2023-04-27T01:37:52;97913.44;;;6.66;100.00
41886;BME280;27567;43.084;25.616;2023-04-27T01:40:37;97921.78;;;6.62;100.00
41886;BME280;27567;43.084;25.616;2023-04-27T01:43:21;97922.94;;;6.53;100.00
41886;BME280;27567;43.084;25.616;2023-04-27T01:46:12;97924.72;;;6.68;100.00
41886;BME280;27567;43.084;25.616;2023-04-27T01:48:56;97924.91;;;6.81;100.00
41886;BME280;27567;43.084;25.616;2023-04-27T01:51:40;97926.22;;;6.55;100.00
41886;BME280;27567;43.084;25.616;2023-04-27T01:54:24;97922.56;;;6.41;100.00
41886;BME280;27567;43.084;25.616;2023-04-27T01:57:09;97931.56;;;6.40;100.00
41886;BME280;27567;43.084;25.616;2023-04-27T01:59:53;97941.22;;;6.41;100.00
41886;BME280;27567;43.084;25.616;2023-04-27T02:02:37;97942.13;;;6.34;100.00
41886;BME280;27567;43.084;25.616;2023-04-27T02:05:21;97935.44;;;6.23;100.00
41886;BME280;27567;43.084;25.616;2023-04-27T02:08:05;97941.13;;;6.20;100.00
41886;BME280;27567;43.084;25.616;2023-04-27T02:10:49;97937.97;;;6.16;100.00
41886;BME280;27567;43.084;25.616;2023-04-27T02:13:33;97941.28;;;6.03;100.00
41886;BME280;27567;43.084;25.616;2023-04-27T02:16:17;97947.59;;;6.02;100.00
41886;BME280;27567;43.084;25.616;2023-04-27T02:19:01;97939.97;;;5.84;100.00
41886;BME280;27567;43.084;25.616;2023-04-27T02:21:46;97937.09;;;5.85;100.00
41886;BME280;27567;43.084;25.616;2023-04-27T02:24:30;97944.25;;;5.70;100.00
41886;BME280;27567;43.084;25.616;2023-04-27T02:27:14;97945.75;;;5.49;100.00
41886;BME280;27567;43.084;25.616;2023-04-27T02:29:58;97945.69;;;5.34;100.00
41886;BME280;27567;43.084;25.616;2023-04-27T02:32:42;97938.97;;;5.23;100.00
41886;BME280;27567;43.084;25.616;2023-04-27T02:35:27;97946.75;;;5.25;100.00
41886;BME280;27567;43.084;25.616;2023-04-27T02:38:10;97948.81;;;5.15;100.00
41886;BME280;27567;43.084;25.616;2023-04-27T02:40:56;97946.78;;;4.93;100.00
41886;BME280;27567;43.084;25.616;2023-04-27T02:43:40;97936.78;;;5.04;100.00
41886;BME280;27567;43.084;25.616;2023-04-27T02:46:24;97947.25;;;4.97;100.00
41886;BME280;27567;43.084;25.616;2023-04-27T02:49:10;97945.31;;;4.91;100.00
41886;BME280;27567;43.084;25.616;2023-04-27T02:51:55;97940.22;;;4.81;100.00
41886;BME280;27567;43.084;25.616;2023-04-27T02:54:39;97941.69;;;4.84;100.00
41886;BME280;27567;43.084;25.616;2023-04-27T02:57:23;97951.91;;;4.95;100.00
41886;BME280;27567;43.084;25.616;2023-04-27T03:00:07;97948.47;;;4.86;100.00
41886;BME280;27567;43.084;25.616;2023-04-27T03:02:53;97945.69;;;4.79;100.00
41886;BME280;27567;43.084;25.616;2023-04-27T03:05:37;97965.41;;;4.85;100.00
41886;BME280;27567;43.084;25.616;2023-04-27T03:08:21;97961.41;;;4.89;100.00
41886;BME280;27567;43.084;25.616;2023-04-27T03:11:05;97957.59;;;4.92;100.00
41886;BME280;27567;43.084;25.616;2023-04-27T03:13:50;97969.06;;;4.84;100.00
41886;BME280;27567;43.084;25.616;2023-04-27T03:16:34;97972.91;;;4.81;100.00
41886;BME280;27567;43.084;25.616;2023-04-27T03:19:18;97965.91;;;4.89;100.00
41886;BME280;27567;43.084;25.616;2023-04-27T03:22:02;97973.00;;;4.96;100.00
41886;BME280;27567;43.084;25.616;2023-04-27T03:24:46;97974.09;;;4.79;100.00
41886;BME280;27567;43.084;25.616;2023-04-27T03:27:30;97978.84;;;4.92;100.00
41886;BME280;27567;43.084;25.616;2023-04-27T03:30:14;97988.09;;;4.96;100.00
41886;BME280;27567;43.084;25.616;2023-04-27T03:32:59;97986.75;;;5.00;100.00
41886;BME280;27567;43.084;25.616;2023-04-27T03:35:43;97995.41;;;4.94;100.00
41886;BME280;27567;43.084;25.616;2023-04-27T03:38:27;97994.13;;;4.90;100.00
41886;BME280;27567;43.084;25.616;2023-04-27T03:41:11;98000.56;;;4.95;100.00
41886;BME280;27567;43.084;25.616;2023-04-27T03:43:55;97990.25;;;5.01;100.00
41886;BME280;27567;43.084;25.616;2023-04-27T03:46:40;97999.38;;;4.98;100.00
41886;BME280;27567;43.084;25.616;2023-04-27T03:49:24;97998.22;;;5.01;100.00
41886;BME280;27567;43.084;25.616;2023-04-27T03:52:08;98010.59;;;5.17;100.00
41886;BME280;27567;43.084;25.616;2023-04-27T03:54:52;98005.63;;;5.14;100.00
41886;BME280;27567;43.084;25.616;2023-04-27T03:57:39;98009.94;;;5.15;100.00
41886;BME280;27567;43.084;25.616;2023-04-27T04:00:24;98016.72;;;5.17;100.00
41886;BME280;27567;43.084;25.616;2023-04-27T04:03:11;98016.69;;;5.25;100.00
41886;BME280;27567;43.084;25.616;2023-04-27T04:06:00;98018.16;;;5.28;100.00
41886;BME280;27567;43.084;25.616;2023-04-27T04:08:46;98019.34;;;5.25;100.00
41886;BME280;27567;43.084;25.616;2023-04-27T04:11:30;98018.03;;;5.45;100.00
41886;BME280;27567;43.084;25.616;2023-04-27T04:14:14;98028.78;;;5.28;100.00
41886;BME280;27567;43.084;25.616;2023-04-27T04:16:58;98026.22;;;5.43;100.00
41886;BME280;27567;43.084;25.616;2023-04-27T04:19:42;98032.06;;;5.38;100.00
41886;BME280;27567;43.084;25.616;2023-04-27T04:22:26;98028.44;;;5.31;100.00
41886;BME280;27567;43.084;25.616;2023-04-27T04:25:10;98032.69;;;5.09;100.00
41886;BME280;27567;43.084;25.616;2023-04-27T04:27:55;98040.81;;;5.47;100.00
41886;BME280;27567;43.084;25.616;2023-04-27T04:30:39;98043.41;;;5.79;100.00
41886;BME280;27567;43.084;25.616;2023-04-27T04:33:23;98043.88;;;5.59;100.00
41886;BME280;27567;43.084;25.616;2023-04-27T04:36:09;98032.75;;;5.55;100.00
41886;BME280;27567;43.084;25.616;2023-04-27T04:38:53;98038.69;;;5.66;100.00
41886;BME280;27567;43.084;25.616;2023-04-27T04:41:40;98040.94;;;6.00;100.00
41886;BME280;27567;43.084;25.616;2023-04-27T04:44:24;98041.59;;;6.03;100.00
41886;BME280;27567;43.084;25.616;2023-04-27T04:47:08;98046.66;;;6.12;100.00
41886;BME280;27567;43.084;25.616;2023-04-27T04:49:56;98033.56;;;6.26;100.00
41886;BME280;27567;43.084;25.616;2023-04-27T04:52:40;98044.69;;;6.29;100.00
41886;BME280;27567;43.084;25.616;2023-04-27T04:55:25;98038.53;;;6.59;100.00
41886;BME280;27567;43.084;25.616;2023-04-27T04:58:10;98050.84;;;6.45;100.00
41886;BME280;27567;43.084;25.616;2023-04-27T05:00:54;98049.78;;;6.69;100.00
41886;BME280;27567;43.084;25.616;2023-04-27T05:03:39;98045.44;;;6.83;100.00
41886;BME280;27567;43.084;25.616;2023-04-27T05:06:23;98040.38;;;6.88;100.00
41886;BME280;27567;43.084;25.616;2023-04-27T05:09:07;98049.72;;;6.99;100.00
41886;BME280;27567;43.084;25.616;2023-04-27T05:11:51;98054.97;;;6.92;100.00
41886;BME280;27567;43.084;25.616;2023-04-27T05:14:34;98047.34;;;7.04;100.00
41886;BME280;27567;43.084;25.616;2023-04-27T05:17:18;98060.94;;;7.10;100.00
41886;BME280;27567;43.084;25.616;2023-04-27T05:20:03;98057.97;;;7.19;100.00
41886;BME280;27567;43.084;25.616;2023-04-27T05:22:47;98058.06;;;7.11;100.00
41886;BME280;27567;43.084;25.616;2023-04-27T05:25:32;98070.91;;;7.37;100.00
41886;BME280;27567;43.084;25.616;2023-04-27T05:28:16;98057.59;;;7.37;100.00
41886;BME280;27567;43.084;25.616;2023-04-27T05:31:00;98072.19;;;7.42;100.00
41886;BME280;27567;43.084;25.616;2023-04-27T05:33:44;98070.81;;;6.94;100.00
41886;BME280;27567;43.084;25.616;2023-04-27T05:36:28;98070.69;;;7.02;100.00
41886;BME280;27567;43.084;25.616;2023-04-27T05:39:12;98077.22;;;7.15;100.00
41886;BME280;27567;43.084;25.616;2023-04-27T05:41:56;98078.31;;;7.20;100.00
41886;BME280;27567;43.084;25.616;2023-04-27T05:44:40;98070.91;;;7.37;100.00
41886;BME280;27567;43.084;25.616;2023-04-27T05:47:25;98081.69;;;7.29;100.00
41886;BME280;27567;43.084;25.616;2023-04-27T05:50:10;98075.50;;;7.44;100.00
41886;BME280;27567;43.084;25.616;2023-04-27T05:52:54;98079.34;;;7.41;100.00
41886;BME280;27567;43.084;25.616;2023-04-27T05:55:38;98086.69;;;7.54;100.00
41886;BME280;27567;43.084;25.616;2023-04-27T05:58:22;98089.38;;;7.76;100.00
41886;BME280;27567;43.084;25.616;2023-04-27T06:01:07;98095.63;;;8.05;100.00
41886;BME280;27567;43.084;25.616;2023-04-27T06:03:51;98090.50;;;8.03;100.00
41886;BME280;27567;43.084;25.616;2023-04-27T06:06:35;98103.09;;;8.38;100.00
41886;BME280;27567;43.084;25.616;2023-04-27T06:09:19;98099.03;;;8.64;100.00
41886;BME280;27567;43.084;25.616;2023-04-27T06:12:05;98107.50;;;8.24;100.00
41886;BME280;27567;43.084;25.616;2023-04-27T06:14:49;98105.41;;;8.41;100.00
41886;BME280;27567;43.084;25.616;2023-04-27T06:17:37;98105.09;;;8.29;100.00
41886;BME280;27567;43.084;25.616;2023-04-27T06:20:22;98110.03;;;7.89;100.00
41886;BME280;27567;43.084;25.616;2023-04-27T06:23:06;98109.16;;;8.25;100.00
41886;BME280;27567;43.084;25.616;2023-04-27T06:25:50;98105.28;;;8.27;100.00
41886;BME280;27567;43.084;25.616;2023-04-27T06:28:34;98112.91;;;8.31;100.00
41886;BME280;27567;43.084;25.616;2023-04-27T06:31:18;98097.22;;;8.21;100.00
41886;BME280;27567;43.084;25.616;2023-04-27T06:34:01;98113.16;;;8.36;100.00
41886;BME280;27567;43.084;25.616;2023-04-27T06:36:46;98109.50;;;8.65;100.00
41886;BME280;27567;43.084;25.616;2023-04-27T06:39:30;98111.44;;;8.78;100.00
41886;BME280;27567;43.084;25.616;2023-04-27T06:42:15;98129.19;;;8.93;100.00
41886;BME280;27567;43.084;25.616;2023-04-27T06:44:59;98124.38;;;8.75;100.00
41886;BME280;27567;43.084;25.616;2023-04-27T06:47:44;98125.09;;;8.62;100.00
41886;BME280;27567;43.084;25.616;2023-04-27T06:50:28;98130.91;;;8.72;100.00
41886;BME280;27567;43.084;25.616;2023-04-27T06:53:13;98142.81;;;8.98;100.00
41886;BME280;27567;43.084;25.616;2023-04-27T06:55:57;98118.16;;;8.46;100.00
41886;BME280;27567;43.084;25.616;2023-04-27T06:58:41;98128.78;;;8.89;100.00
41886;BME280;27567;43.084;25.616;2023-04-27T07:01:26;98136.00;;;8.89;100.00
41886;BME280;27567;43.084;25.616;2023-04-27T07:04:10;98137.34;;;8.78;100.00
41886;BME280;27567;43.084;25.616;2023-04-27T07:06:54;98138.66;;;8.38;100.00
41886;BME280;27567;43.084;25.616;2023-04-27T07:09:39;98142.69;;;8.78;100.00
41886;BME280;27567;43.084;25.616;2023-04-27T07:12:22;98135.09;;;9.16;100.00
41886;BME280;27567;43.084;25.616;2023-04-27T07:15:07;98135.34;;;9.22;100.00
41886;BME280;27567;43.084;25.616;2023-04-27T07:17:51;98132.31;;;9.31;100.00
41886;BME280;27567;43.084;25.616;2023-04-27T07:20:40;98150.09;;;9.46;100.00
41886;BME280;27567;43.084;25.616;2023-04-27T07:23:25;98144.22;;;9.29;100.00
41886;BME280;27567;43.084;25.616;2023-04-27T07:26:09;98148.56;;;8.95;100.00
41886;BME280;27567;43.084;25.616;2023-04-27T07:28:53;98138.44;;;8.90;100.00
41886;BME280;27567;43.084;25.616;2023-04-27T07:31:37;98140.59;;;9.01;100.00
41886;BME280;27567;43.084;25.616;2023-04-27T07:34:22;98146.72;;;8.95;100.00
41886;BME280;27567;43.084;25.616;2023-04-27T07:37:06;98151.88;;;8.68;100.00
41886;BME280;27567;43.084;25.616;2023-04-27T07:39:51;98142.84;;;8.69;100.00
41886;BME280;27567;43.084;25.616;2023-04-27T07:42:36;98150.16;;;8.89;100.00
41886;BME280;27567;43.084;25.616;2023-04-27T07:45:23;98140.69;;;8.86;100.00
41886;BME280;27567;43.084;25.616;2023-04-27T07:48:14;98140.69;;;9.22;100.00
41886;BME280;27567;43.084;25.616;2023-04-27T07:50:58;98138.22;;;9.20;100.00
41886;BME280;27567;43.084;25.616;2023-04-27T07:53:42;98137.03;;;9.29;100.00
41886;BME280;27567;43.084;25.616;2023-04-27T07:56:26;98141.41;;;9.02;100.00
41886;BME280;27567;43.084;25.616;2023-04-27T07:59:10;98150.31;;;9.09;100.00
41886;BME280;27567;43.084;25.616;2023-04-27T08:01:54;98149.44;;;9.02;100.00
41886;BME280;27567;43.084;25.616;2023-04-27T08:04:38;98157.72;;;9.14;100.00
41886;BME280;27567;43.084;25.616;2023-04-27T08:07:22;98150.56;;;9.21;100.00
41886;BME280;27567;43.084;25.616;2023-04-27T08:10:07;98166.16;;;8.82;100.00
41886;BME280;27567;43.084;25.616;2023-04-27T08:12:52;98161.72;;;8.68;100.00
41886;BME280;27567;43.084;25.616;2023-04-27T08:15:36;98165.66;;;8.72;100.00
41886;BME280;27567;43.084;25.616;2023-04-27T08:18:20;98146.41;;;8.77;100.00
41886;BME280;27567;43.084;25.616;2023-04-27T08:21:04;98159.47;;;8.65;100.00
41886;BME280;27567;43.084;25.616;2023-04-27T08:23:48;98158.81;;;8.63;100.00
41886;BME280;27567;43.084;25.616;2023-04-27T08:26:32;98161.94;;;8.66;100.00
41886;BME280;27567;43.084;25.616;2023-04-27T08:29:18;98161.00;;;8.81;100.00
41886;BME280;27567;43.084;25.616;2023-04-27T08:32:03;98162.47;;;8.83;100.00
41886;BME280;27567;43.084;25.616;2023-04-27T08:34:47;98167.03;;;8.90;100.00
41886;BME280;27567;43.084;25.616;2023-04-27T08:37:31;98154.41;;;8.77;100.00
41886;BME280;27567;43.084;25.616;2023-04-27T08:40:15;98160.06;;;8.89;100.00
41886;BME280;27567;43.084;25.616;2023-04-27T08:42:59;98163.22;;;9.06;100.00
41886;BME280;27567;43.084;25.616;2023-04-27T08:45:48;98160.13;;;9.37;100.00
41886;BME280;27567;43.084;25.616;2023-04-27T08:48:35;98156.06;;;9.48;100.00
41886;BME280;27567;43.084;25.616;2023-04-27T08:51:20;98157.59;;;9.71;100.00
41886;BME280;27567;43.084;25.616;2023-04-27T08:54:05;98159.44;;;9.77;100.00
41886;BME280;27567;43.084;25.616;2023-04-27T08:56:49;98161.34;;;9.90;100.00
41886;BME280;27567;43.084;25.616;2023-04-27T08:59:33;98162.19;;;9.90;100.00
41886;BME280;27567;43.084;25.616;2023-04-27T09:02:19;98170.59;;;9.81;100.00
41886;BME280;27567;43.084;25.616;2023-04-27T09:05:04;98166.19;;;10.35;100.00
41886;BME280;27567;43.084;25.616;2023-04-27T09:08:03;98165.34;;;10.28;100.00
41886;BME280;27567;43.084;25.616;2023-04-27T09:10:51;98153.38;;;10.23;100.00
41886;BME280;27567;43.084;25.616;2023-04-27T09:13:42;98159.66;;;9.69;100.00
41886;BME280;27567;43.084;25.616;2023-04-27T09:16:30;98161.41;;;10.23;100.00
41886;BME280;27567;43.084;25.616;2023-04-27T09:19:23;98157.78;;;10.45;100.00
41886;BME280;27567;43.084;25.616;2023-04-27T09:22:09;98152.16;;;11.13;100.00
41886;BME280;27567;43.084;25.616;2023-04-27T09:24:56;98145.19;;;10.65;100.00
41886;BME280;27567;43.084;25.616;2023-04-27T09:27:42;98148.06;;;10.97;100.00
41886;BME280;27567;43.084;25.616;2023-04-27T09:30:28;98147.38;;;11.81;100.00
41886;BME280;27567;43.084;25.616;2023-04-27T09:33:12;98145.75;;;12.19;100.00
41886;BME280;27567;43.084;25.616;2023-04-27T09:35:57;98147.06;;;11.64;100.00
41886;BME280;27567;43.084;25.616;2023-04-27T09:38:42;98150.28;;;11.80;100.00
41886;BME280;27567;43.084;25.616;2023-04-27T09:41:26;98141.50;;;10.66;100.00
41886;BME280;27567;43.084;25.616;2023-04-27T09:44:11;98140.25;;;10.76;100.00
41886;BME280;27567;43.084;25.616;2023-04-27T09:46:58;98140.44;;;10.74;100.00
41886;BME280;27567;43.084;25.616;2023-04-27T09:49:43;98147.88;;;10.79;100.00
41886;BME280;27567;43.084;25.616;2023-04-27T09:52:27;98145.91;;;11.85;100.00
41886;BME280;27567;43.084;25.616;2023-04-27T09:55:15;98130.94;;;11.64;100.00
41886;BME280;27567;43.084;25.616;2023-04-27T10:01:56;98136.66;;;11.22;100.00
41886;BME280;27567;43.084;25.616;2023-04-27T10:07:28;98125.75;;;12.08;100.00
41886;BME280;27567;43.084;25.616;2023-04-27T10:10:16;98128.88;;;12.05;100.00
41886;BME280;27567;43.084;25.616;2023-04-27T10:13:03;98125.69;;;12.22;100.00
41886;BME280;27567;43.084;25.616;2023-04-27T10:15:47;98119.44;;;12.53;100.00
41886;BME280;27567;43.084;25.616;2023-04-27T10:18:30;98119.41;;;12.35;100.00
41886;BME280;27567;43.084;25.616;2023-04-27T10:21:15;98131.28;;;12.71;100.00
41886;BME280;27567;43.084;25.616;2023-04-27T10:24:06;98129.53;;;13.46;100.00
41886;BME280;27567;43.084;25.616;2023-04-27T10:27:00;98139.09;;;13.23;100.00
41886;BME280;27567;43.084;25.616;2023-04-27T10:29:46;98126.16;;;14.54;100.00
41886;BME280;27567;43.084;25.616;2023-04-27T10:32:30;98121.75;;;14.83;100.00
41886;BME280;27567;43.084;25.616;2023-04-27T10:35:14;98128.75;;;15.32;100.00
41886;BME280;27567;43.084;25.616;2023-04-27T10:38:06;98114.50;;;15.89;100.00
41886;BME280;27567;43.084;25.616;2023-04-27T10:41:02;98120.78;;;15.37;100.00
41886;BME280;27567;43.084;25.616;2023-04-27T10:43:47;98127.06;;;15.96;100.00
41886;BME280;27567;43.084;25.616;2023-04-27T10:46:33;98124.78;;;15.23;100.00
41886;BME280;27567;43.084;25.616;2023-04-27T10:49:19;98129.72;;;16.07;100.00
41886;BME280;27567;43.084;25.616;2023-04-27T10:52:03;98131.00;;;15.76;100.00
41886;BME280;27567;43.084;25.616;2023-04-27T10:54:48;98119.63;;;16.03;100.00
41886;BME280;27567;43.084;25.616;2023-04-27T10:57:32;98123.09;;;16.15;100.00
41886;BME280;27567;43.084;25.616;2023-04-27T11:00:24;98121.28;;;17.68;100.00
41886;BME280;27567;43.084;25.616;2023-04-27T11:06:02;98100.16;;;20.69;85.16
41886;BME280;27567;43.084;25.616;2023-04-27T11:08:47;98106.94;;;20.35;87.45
41886;BME280;27567;43.084;25.616;2023-04-27T11:11:31;98102.22;;;21.95;71.64
41886;BME280;27567;43.084;25.616;2023-04-27T11:14:19;98107.53;;;20.79;78.04
41886;BME280;27567;43.084;25.616;2023-04-27T11:17:04;98096.53;;;21.15;72.65
41886;BME280;27567;43.084;25.616;2023-04-27T11:19:48;98092.03;;;22.80;61.07
41886;BME280;27567;43.084;25.616;2023-04-27T11:22:32;98094.53;;;22.76;60.95
41886;BME280;27567;43.084;25.616;2023-04-27T11:25:16;98090.56;;;23.85;57.11
41886;BME280;27567;43.084;25.616;2023-04-27T11:28:00;98089.13;;;25.53;48.82
41886;BME280;27567;43.084;25.616;2023-04-27T11:30:44;98088.72;;;23.80;55.47
41886;BME280;27567;43.084;25.616;2023-04-27T11:33:29;98100.31;;;21.95;65.58
41886;BME280;27567;43.084;25.616;2023-04-27T11:36:22;98095.69;;;21.25;77.76
41886;BME280;27567;43.084;25.616;2023-04-27T11:39:06;98095.75;;;22.89;66.38
41886;BME280;27567;43.084;25.616;2023-04-27T11:41:51;98102.81;;;21.15;71.95
41886;BME280;27567;43.084;25.616;2023-04-27T11:44:35;98095.00;;;18.93;98.49
41886;BME280;27567;43.084;25.616;2023-04-27T11:47:20;98102.41;;;19.57;96.12
41886;BME280;27567;43.084;25.616;2023-04-27T11:50:05;98103.50;;;18.97;100.00
41886;BME280;27567;43.084;25.616;2023-04-27T11:52:51;98111.00;;;17.70;100.00
41886;BME280;27567;43.084;25.616;2023-04-27T11:55:36;98102.38;;;17.51;100.00
41886;BME280;27567;43.084;25.616;2023-04-27T11:58:20;98103.53;;;16.59;100.00
41886;BME280;27567;43.084;25.616;2023-04-27T12:01:05;98108.59;;;14.99;100.00
41886;BME280;27567;43.084;25.616;2023-04-27T12:03:50;98117.41;;;13.86;100.00
41886;BME280;27567;43.084;25.616;2023-04-27T12:06:35;98127.34;;;13.36;100.00
41886;BME280;27567;43.084;25.616;2023-04-27T12:09:20;98106.69;;;14.52;100.00
41886;BME280;27567;43.084;25.616;2023-04-27T12:12:05;98109.97;;;15.37;100.00
41886;BME280;27567;43.084;25.616;2023-04-27T12:14:50;98104.69;;;15.71;100.00
41886;BME280;27567;43.084;25.616;2023-04-27T12:17:34;98101.31;;;16.22;100.00
41886;BME280;27567;43.084;25.616;2023-04-27T12:20:18;98106.19;;;15.50;100.00
41886;BME280;27567;43.084;25.616;2023-04-27T12:23:02;98109.16;;;14.65;100.00
41886;BME280;27567;43.084;25.616;2023-04-27T12:25:46;98107.91;;;14.13;100.00
41886;BME280;27567;43.084;25.616;2023-04-27T12:28:31;98109.41;;;14.64;100.00
41886;BME280;27567;43.084;25.616;2023-04-27T12:31:15;98107.47;;;15.36;100.00
41886;BME280;27567;43.084;25.616;2023-04-27T12:34:01;98101.50;;;16.32;100.00
41886;BME280;27567;43.084;25.616;2023-04-27T12:36:45;98095.78;;;17.91;100.00
41886;BME280;27567;43.084;25.616;2023-04-27T12:39:29;98090.63;;;20.30;100.00
41886;BME280;27567;43.084;25.616;2023-04-27T12:42:14;98079.56;;;21.94;93.88
41886;BME280;27567;43.084;25.616;2023-04-27T12:45:00;98069.69;;;24.46;67.13
41886;BME280;27567;43.084;25.616;2023-04-27T12:47:44;98066.94;;;25.77;55.57
41886;BME280;27567;43.084;25.616;2023-04-27T12:50:30;98068.06;;;24.79;60.74
41886;BME280;27567;43.084;25.616;2023-04-27T12:53:15;98072.59;;;23.35;70.15
41886;BME280;27567;43.084;25.616;2023-04-27T12:56:00;98073.16;;;20.93;91.03
41886;BME280;27567;43.084;25.616;2023-04-27T12:58:45;98077.28;;;20.23;100.00
41886;BME280;27567;43.084;25.616;2023-04-27T13:01:29;98079.69;;;18.77;100.00
41886;BME280;27567;43.084;25.616;2023-04-27T13:04:18;98082.59;;;17.06;100.00
41886;BME280;27567;43.084;25.616;2023-04-27T13:07:02;98079.19;;;15.67;100.00
41886;BME280;27567;43.084;25.616;2023-04-27T13:09:46;98075.97;;;15.82;100.00
41886;BME280;27567;43.084;25.616;2023-04-27T13:12:31;98064.66;;;16.14;100.00
41886;BME280;27567;43.084;25.616;2023-04-27T13:15:15;98057.72;;;17.58;100.00
41886;BME280;27567;43.084;25.616;2023-04-27T13:17:59;98066.25;;;16.83;100.00
41886;BME280;27567;43.084;25.616;2023-04-27T13:20:46;98063.53;;;19.61;91.80
41886;BME280;27567;43.084;25.616;2023-04-27T13:23:31;98058.16;;;20.96;78.55
41886;BME280;27567;43.084;25.616;2023-04-27T13:26:15;98047.31;;;20.60;87.03
41886;BME280;27567;43.084;25.616;2023-04-27T13:28:59;98060.94;;;20.13;97.01
41886;BME280;27567;43.084;25.616;2023-04-27T13:31:44;98065.09;;;19.36;100.00
41886;BME280;27567;43.084;25.616;2023-04-27T13:34:28;98056.00;;;18.67;100.00
41886;BME280;27567;43.084;25.616;2023-04-27T13:37:13;98068.91;;;16.61;100.00
41886;BME280;27567;43.084;25.616;2023-04-27T13:39:57;98065.38;;;15.23;100.00
41886;BME280;27567;43.084;25.616;2023-04-27T13:42:41;98078.69;;;14.10;100.00
41886;BME280;27567;43.084;25.616;2023-04-27T13:45:25;98066.75;;;14.06;100.00
41886;BME280;27567;43.084;25.616;2023-04-27T13:48:09;98074.59;;;14.08;100.00
41886;BME280;27567;43.084;25.616;2023-04-27T13:50:53;98084.75;;;13.94;100.00
41886;BME280;27567;43.084;25.616;2023-04-27T13:53:38;98085.97;;;13.30;100.00
41886;BME280;27567;43.084;25.616;2023-04-27T13:56:22;98093.53;;;12.84;100.00
41886;BME280;27567;43.084;25.616;2023-04-27T13:59:06;98094.16;;;12.80;100.00
41886;BME280;27567;43.084;25.616;2023-04-27T14:01:53;98100.97;;;12.06;100.00
41886;BME280;27567;43.084;25.616;2023-04-27T14:04:37;98107.66;;;11.51;100.00
41886;BME280;27567;43.084;25.616;2023-04-27T14:07:21;98107.16;;;11.22;100.00
41886;BME280;27567;43.084;25.616;2023-04-27T14:10:06;98128.44;;;10.10;100.00
41886;BME280;27567;43.084;25.616;2023-04-27T14:12:50;98104.91;;;7.87;100.00
41886;BME280;27567;43.084;25.616;2023-04-27T14:15:34;98131.44;;;6.77;100.00
41886;BME280;27567;43.084;25.616;2023-04-27T14:18:20;98141.69;;;6.27;100.00
41886;BME280;27567;43.084;25.616;2023-04-27T14:21:04;98145.03;;;6.06;100.00
41886;BME280;27567;43.084;25.616;2023-04-27T14:23:49;98174.50;;;5.96;100.00
41886;BME280;27567;43.084;25.616;2023-04-27T14:26:32;98163.25;;;5.85;100.00
41886;BME280;27567;43.084;25.616;2023-04-27T14:29:17;98165.22;;;5.92;100.00